sensor_id;sensor_type;location;lat;lon;timestamp;P1;durP1;ratioP1;P2;durP2;ratioP2
66437;SDS011;54537;47.972;11.662;2023-06-14T00:00:58;10.43;;;3.22;;
66437;SDS011;54537;47.972;11.662;2023-06-14T00:03:25;7.90;;;3.03;;
66437;SDS011;54537;47.972;11.662;2023-06-14T00:05:51;7.10;;;2.90;;
66437;SDS011;54537;47.972;11.662;2023-06-14T00:08:18;5.97;;;3.20;;
66437;SDS011;54537;47.972;11.662;2023-06-14T00:10:47;7.38;;;3.33;;
66437;SDS011;54537;47.972;11.662;2023-06-14T00:13:14;6.40;;;3.08;;
66437;SDS011;54537;47.972;11.662;2023-06-14T00:15:41;6.75;;;3.15;;
66437;SDS011;54537;47.972;11.662;2023-06-14T00:18:08;7.93;;;3.00;;
66437;SDS011;54537;47.972;11.662;2023-06-14T00:20:36;6.53;;;3.13;;
66437;SDS011;54537;47.972;11.662;2023-06-14T00:23:04;7.47;;;3.30;;
66437;SDS011;54537;47.972;11.662;2023-06-14T00:25:31;7.78;;;3.55;;
66437;SDS011;54537;47.972;11.662;2023-06-14T00:27:58;6.78;;;3.25;;
66437;SDS011;54537;47.972;11.662;2023-06-14T00:30:25;6.85;;;2.95;;
66437;SDS011;54537;47.972;11.662;2023-06-14T00:32:55;7.60;;;3.08;;
66437;SDS011;54537;47.972;11.662;2023-06-14T00:35:22;8.48;;;3.30;;
66437;SDS011;54537;47.972;11.662;2023-06-14T00:37:48;6.47;;;3.10;;
66437;SDS011;54537;47.972;11.662;2023-06-14T00:40:15;7.50;;;3.22;;
66437;SDS011;54537;47.972;11.662;2023-06-14T00:42:41;7.05;;;3.40;;
66437;SDS011;54537;47.972;11.662;2023-06-14T00:45:10;7.60;;;3.35;;
66437;SDS011;54537;47.972;11.662;2023-06-14T00:47:36;7.43;;;3.17;;
66437;SDS011;54537;47.972;11.662;2023-06-14T00:50:05;5.68;;;3.08;;
66437;SDS011;54537;47.972;11.662;2023-06-14T00:52:33;7.72;;;3.03;;
66437;SDS011;54537;47.972;11.662;2023-06-14T00:54:59;7.20;;;3.10;;
66437;SDS011;54537;47.972;11.662;2023-06-14T00:57:26;7.07;;;3.10;;
66437;SDS011;54537;47.972;11.662;2023-06-14T00:59:54;8.30;;;3.25;;
66437;SDS011;54537;47.972;11.662;2023-06-14T01:02:22;8.02;;;3.28;;
66437;SDS011;54537;47.972;11.662;2023-06-14T01:04:50;7.10;;;3.25;;
66437;SDS011;54537;47.972;11.662;2023-06-14T01:07:19;6.38;;;2.97;;
66437;SDS011;54537;47.972;11.662;2023-06-14T01:12:21;7.35;;;3.17;;
66437;SDS011;54537;47.972;11.662;2023-06-14T01:14:51;7.07;;;3.10;;
66437;SDS011;54537;47.972;11.662;2023-06-14T01:17:19;6.70;;;2.97;;
66437;SDS011;54537;47.972;11.662;2023-06-14T01:19:48;7.30;;;3.20;;
66437;SDS011;54537;47.972;11.662;2023-06-14T01:22:14;6.22;;;3.10;;
66437;SDS011;54537;47.972;11.662;2023-06-14T01:24:42;6.00;;;3.03;;
66437;SDS011;54537;47.972;11.662;2023-06-14T01:27:10;8.38;;;3.58;;
66437;SDS011;54537;47.972;11.662;2023-06-14T01:29:37;7.00;;;3.22;;
66437;SDS011;54537;47.972;11.662;2023-06-14T01:32:04;7.72;;;3.13;;
66437;SDS011;54537;47.972;11.662;2023-06-14T01:34:32;6.72;;;3.30;;
66437;SDS011;54537;47.972;11.662;2023-06-14T01:36:58;7.38;;;3.00;;
66437;SDS011;54537;47.972;11.662;2023-06-14T01:39:26;6.97;;;3.45;;
66437;SDS011;54537;47.972;11.662;2023-06-14T01:41:54;8.68;;;3.35;;
66437;SDS011;54537;47.972;11.662;2023-06-14T01:44:20;7.88;;;3.47;;
66437;SDS011;54537;47.972;11.662;2023-06-14T01:46:48;6.18;;;2.97;;
66437;SDS011;54537;47.972;11.662;2023-06-14T01:49:15;7.40;;;3.53;;
66437;SDS011;54537;47.972;11.662;2023-06-14T01:51:42;7.22;;;3.63;;
66437;SDS011;54537;47.972;11.662;2023-06-14T01:54:08;7.00;;;3.25;;
66437;SDS011;54537;47.972;11.662;2023-06-14T01:56:35;7.18;;;2.97;;
66437;SDS011;54537;47.972;11.662;2023-06-14T01:59:03;8.27;;;3.03;;
66437;SDS011;54537;47.972;11.662;2023-06-14T02:01:29;6.10;;;2.83;;
66437;SDS011;54537;47.972;11.662;2023-06-14T02:03:56;7.25;;;3.33;;
66437;SDS011;54537;47.972;11.662;2023-06-14T02:06:23;5.55;;;2.72;;
66437;SDS011;54537;47.972;11.662;2023-06-14T02:08:50;7.25;;;3.38;;
66437;SDS011;54537;47.972;11.662;2023-06-14T02:11:16;6.63;;;3.40;;
66437;SDS011;54537;47.972;11.662;2023-06-14T02:13:43;5.90;;;2.78;;
66437;SDS011;54537;47.972;11.662;2023-06-14T02:16:11;6.28;;;3.25;;
66437;SDS011;54537;47.972;11.662;2023-06-14T02:18:37;6.93;;;2.80;;
66437;SDS011;54537;47.972;11.662;2023-06-14T02:21:04;6.60;;;3.10;;
66437;SDS011;54537;47.972;11.662;2023-06-14T02:23:30;7.45;;;3.25;;
66437;SDS011;54537;47.972;11.662;2023-06-14T02:25:58;7.25;;;3.55;;
66437;SDS011;54537;47.972;11.662;2023-06-14T02:28:24;6.57;;;3.00;;
66437;SDS011;54537;47.972;11.662;2023-06-14T02:30:51;6.20;;;3.10;;
66437;SDS011;54537;47.972;11.662;2023-06-14T02:33:19;9.50;;;3.30;;
66437;SDS011;54537;47.972;11.662;2023-06-14T02:35:47;8.30;;;3.50;;
66437;SDS011;54537;47.972;11.662;2023-06-14T02:38:13;8.60;;;3.22;;
66437;SDS011;54537;47.972;11.662;2023-06-14T02:40:40;6.20;;;3.05;;
66437;SDS011;54537;47.972;11.662;2023-06-14T02:43:07;8.13;;;3.50;;
66437;SDS011;54537;47.972;11.662;2023-06-14T02:45:33;6.85;;;3.10;;
66437;SDS011;54537;47.972;11.662;2023-06-14T02:48:00;6.85;;;3.08;;
66437;SDS011;54537;47.972;11.662;2023-06-14T02:50:28;7.03;;;3.50;;
66437;SDS011;54537;47.972;11.662;2023-06-14T02:52:55;7.63;;;3.53;;
66437;SDS011;54537;47.972;11.662;2023-06-14T02:55:22;11.57;;;3.67;;
66437;SDS011;54537;47.972;11.662;2023-06-14T02:57:48;7.60;;;3.40;;
66437;SDS011;54537;47.972;11.662;2023-06-14T03:00:15;7.75;;;3.22;;
66437;SDS011;54537;47.972;11.662;2023-06-14T03:02:42;7.10;;;3.13;;
66437;SDS011;54537;47.972;11.662;2023-06-14T03:05:09;6.88;;;2.97;;
66437;SDS011;54537;47.972;11.662;2023-06-14T03:07:37;6.55;;;3.00;;
66437;SDS011;54537;47.972;11.662;2023-06-14T03:10:06;7.03;;;3.08;;
66437;SDS011;54537;47.972;11.662;2023-06-14T03:12:34;8.82;;;3.13;;
66437;SDS011;54537;47.972;11.662;2023-06-14T03:15:00;9.80;;;3.50;;
66437;SDS011;54537;47.972;11.662;2023-06-14T03:17:27;6.05;;;3.28;;
66437;SDS011;54537;47.972;11.662;2023-06-14T03:19:58;12.65;;;3.17;;
66437;SDS011;54537;47.972;11.662;2023-06-14T03:22:24;7.03;;;3.08;;
66437;SDS011;54537;47.972;11.662;2023-06-14T03:24:52;7.82;;;3.33;;
66437;SDS011;54537;47.972;11.662;2023-06-14T03:27:19;7.53;;;3.13;;
66437;SDS011;54537;47.972;11.662;2023-06-14T03:29:45;7.45;;;3.40;;
66437;SDS011;54537;47.972;11.662;2023-06-14T03:32:12;7.05;;;3.30;;
66437;SDS011;54537;47.972;11.662;2023-06-14T03:34:38;10.52;;;4.10;;
66437;SDS011;54537;47.972;11.662;2023-06-14T03:37:06;7.38;;;3.58;;
66437;SDS011;54537;47.972;11.662;2023-06-14T03:39:32;8.32;;;3.10;;
66437;SDS011;54537;47.972;11.662;2023-06-14T03:42:00;7.45;;;3.03;;
66437;SDS011;54537;47.972;11.662;2023-06-14T03:44:26;7.70;;;3.38;;
66437;SDS011;54537;47.972;11.662;2023-06-14T03:46:53;7.93;;;3.65;;
66437;SDS011;54537;47.972;11.662;2023-06-14T03:49:20;7.40;;;3.35;;
66437;SDS011;54537;47.972;11.662;2023-06-14T03:51:46;9.02;;;3.72;;
66437;SDS011;54537;47.972;11.662;2023-06-14T03:54:16;8.88;;;3.58;;
66437;SDS011;54537;47.972;11.662;2023-06-14T03:56:42;7.55;;;3.20;;
66437;SDS011;54537;47.972;11.662;2023-06-14T03:59:10;9.50;;;3.30;;
66437;SDS011;54537;47.972;11.662;2023-06-14T04:01:36;9.27;;;3.83;;
66437;SDS011;54537;47.972;11.662;2023-06-14T04:04:09;11.18;;;3.97;;
66437;SDS011;54537;47.972;11.662;2023-06-14T04:06:36;14.05;;;3.53;;
66437;SDS011;54537;47.972;11.662;2023-06-14T04:09:02;8.02;;;3.22;;
66437;SDS011;54537;47.972;11.662;2023-06-14T04:11:29;9.48;;;3.35;;
66437;SDS011;54537;47.972;11.662;2023-06-14T04:13:57;9.63;;;3.67;;
66437;SDS011;54537;47.972;11.662;2023-06-14T04:16:25;6.30;;;3.20;;
66437;SDS011;54537;47.972;11.662;2023-06-14T04:18:52;7.00;;;3.28;;
66437;SDS011;54537;47.972;11.662;2023-06-14T04:21:19;8.07;;;3.63;;
66437;SDS011;54537;47.972;11.662;2023-06-14T04:23:46;7.20;;;3.58;;
66437;SDS011;54537;47.972;11.662;2023-06-14T04:26:12;7.53;;;3.17;;
66437;SDS011;54537;47.972;11.662;2023-06-14T04:28:39;7.72;;;3.30;;
66437;SDS011;54537;47.972;11.662;2023-06-14T04:31:06;6.78;;;3.28;;
66437;SDS011;54537;47.972;11.662;2023-06-14T04:33:34;8.98;;;3.15;;
66437;SDS011;54537;47.972;11.662;2023-06-14T04:36:09;9.60;;;3.58;;
66437;SDS011;54537;47.972;11.662;2023-06-14T04:38:36;9.30;;;3.15;;
66437;SDS011;54537;47.972;11.662;2023-06-14T04:41:03;14.18;;;3.88;;
66437;SDS011;54537;47.972;11.662;2023-06-14T04:43:30;9.48;;;3.33;;
66437;SDS011;54537;47.972;11.662;2023-06-14T04:46:02;7.97;;;3.42;;
66437;SDS011;54537;47.972;11.662;2023-06-14T04:48:30;7.85;;;3.30;;
66437;SDS011;54537;47.972;11.662;2023-06-14T04:50:58;8.10;;;3.42;;
66437;SDS011;54537;47.972;11.662;2023-06-14T04:53:25;9.02;;;3.63;;
66437;SDS011;54537;47.972;11.662;2023-06-14T04:55:54;6.93;;;3.40;;
66437;SDS011;54537;47.972;11.662;2023-06-14T04:58:20;8.93;;;3.50;;
66437;SDS011;54537;47.972;11.662;2023-06-14T05:00:47;6.95;;;3.42;;
66437;SDS011;54537;47.972;11.662;2023-06-14T05:03:13;6.60;;;3.22;;
66437;SDS011;54537;47.972;11.662;2023-06-14T05:05:40;8.90;;;3.40;;
66437;SDS011;54537;47.972;11.662;2023-06-14T05:08:08;8.55;;;3.30;;
66437;SDS011;54537;47.972;11.662;2023-06-14T05:10:35;6.82;;;3.30;;
66437;SDS011;54537;47.972;11.662;2023-06-14T05:13:02;13.10;;;3.53;;
66437;SDS011;54537;47.972;11.662;2023-06-14T05:15:28;15.20;;;3.45;;
66437;SDS011;54537;47.972;11.662;2023-06-14T05:17:55;12.38;;;3.90;;
66437;SDS011;54537;47.972;11.662;2023-06-14T05:20:22;10.48;;;3.38;;
66437;SDS011;54537;47.972;11.662;2023-06-14T05:22:49;16.05;;;3.45;;
66437;SDS011;54537;47.972;11.662;2023-06-14T05:25:18;8.68;;;3.50;;
66437;SDS011;54537;47.972;11.662;2023-06-14T05:27:45;11.52;;;3.38;;
66437;SDS011;54537;47.972;11.662;2023-06-14T05:30:11;9.05;;;3.13;;
66437;SDS011;54537;47.972;11.662;2023-06-14T05:32:39;8.20;;;2.90;;
66437;SDS011;54537;47.972;11.662;2023-06-14T05:35:06;10.15;;;3.17;;
66437;SDS011;54537;47.972;11.662;2023-06-14T05:37:32;13.55;;;4.32;;
66437;SDS011;54537;47.972;11.662;2023-06-14T05:39:59;11.63;;;3.15;;
66437;SDS011;54537;47.972;11.662;2023-06-14T05:42:27;6.85;;;3.28;;
66437;SDS011;54537;47.972;11.662;2023-06-14T05:44:53;16.02;;;3.10;;
66437;SDS011;54537;47.972;11.662;2023-06-14T05:47:20;7.78;;;2.90;;
66437;SDS011;54537;47.972;11.662;2023-06-14T05:49:47;6.72;;;3.15;;
66437;SDS011;54537;47.972;11.662;2023-06-14T05:52:13;7.40;;;3.00;;
66437;SDS011;54537;47.972;11.662;2023-06-14T05:54:40;5.85;;;2.92;;
66437;SDS011;54537;47.972;11.662;2023-06-14T05:57:06;7.47;;;3.20;;
66437;SDS011;54537;47.972;11.662;2023-06-14T05:59:34;6.53;;;2.92;;
66437;SDS011;54537;47.972;11.662;2023-06-14T06:02:01;5.68;;;2.85;;
66437;SDS011;54537;47.972;11.662;2023-06-14T06:04:27;9.07;;;3.30;;
66437;SDS011;54537;47.972;11.662;2023-06-14T06:06:54;7.47;;;3.22;;
66437;SDS011;54537;47.972;11.662;2023-06-14T06:09:20;7.53;;;3.42;;
66437;SDS011;54537;47.972;11.662;2023-06-14T06:11:47;7.70;;;3.10;;
66437;SDS011;54537;47.972;11.662;2023-06-14T06:14:13;7.50;;;3.05;;
66437;SDS011;54537;47.972;11.662;2023-06-14T06:16:41;6.82;;;3.33;;
66437;SDS011;54537;47.972;11.662;2023-06-14T06:19:08;9.77;;;3.20;;
66437;SDS011;54537;47.972;11.662;2023-06-14T06:21:34;6.05;;;2.92;;
66437;SDS011;54537;47.972;11.662;2023-06-14T06:24:01;7.45;;;2.97;;
66437;SDS011;54537;47.972;11.662;2023-06-14T06:26:30;7.30;;;3.30;;
66437;SDS011;54537;47.972;11.662;2023-06-14T06:28:57;9.27;;;3.47;;
66437;SDS011;54537;47.972;11.662;2023-06-14T06:31:23;5.40;;;2.88;;
66437;SDS011;54537;47.972;11.662;2023-06-14T06:33:52;9.68;;;4.30;;
66437;SDS011;54537;47.972;11.662;2023-06-14T06:36:19;5.72;;;2.72;;
66437;SDS011;54537;47.972;11.662;2023-06-14T06:38:46;7.07;;;2.85;;
66437;SDS011;54537;47.972;11.662;2023-06-14T06:41:13;5.35;;;2.80;;
66437;SDS011;54537;47.972;11.662;2023-06-14T06:43:39;6.18;;;2.95;;
66437;SDS011;54537;47.972;11.662;2023-06-14T06:46:06;5.90;;;3.08;;
66437;SDS011;54537;47.972;11.662;2023-06-14T06:48:32;8.93;;;3.25;;
66437;SDS011;54537;47.972;11.662;2023-06-14T06:51:00;5.90;;;2.60;;
66437;SDS011;54537;47.972;11.662;2023-06-14T06:53:27;7.03;;;2.85;;
66437;SDS011;54537;47.972;11.662;2023-06-14T06:55:53;8.00;;;2.72;;
66437;SDS011;54537;47.972;11.662;2023-06-14T06:58:20;6.85;;;2.95;;
66437;SDS011;54537;47.972;11.662;2023-06-14T07:00:47;9.77;;;2.90;;
66437;SDS011;54537;47.972;11.662;2023-06-14T07:03:13;7.70;;;2.65;;
66437;SDS011;54537;47.972;11.662;2023-06-14T07:05:40;6.45;;;2.92;;
66437;SDS011;54537;47.972;11.662;2023-06-14T07:08:08;6.90;;;3.83;;
66437;SDS011;54537;47.972;11.662;2023-06-14T07:10:34;7.82;;;2.70;;
66437;SDS011;54537;47.972;11.662;2023-06-14T07:13:02;7.07;;;2.75;;
66437;SDS011;54537;47.972;11.662;2023-06-14T07:15:29;6.47;;;2.80;;
66437;SDS011;54537;47.972;11.662;2023-06-14T07:17:55;6.10;;;2.90;;
66437;SDS011;54537;47.972;11.662;2023-06-14T07:20:24;8.07;;;3.15;;
66437;SDS011;54537;47.972;11.662;2023-06-14T07:22:51;6.38;;;2.95;;
66437;SDS011;54537;47.972;11.662;2023-06-14T07:25:19;10.10;;;2.83;;
66437;SDS011;54537;47.972;11.662;2023-06-14T07:27:47;8.25;;;2.72;;
66437;SDS011;54537;47.972;11.662;2023-06-14T07:30:13;6.43;;;3.00;;
66437;SDS011;54537;47.972;11.662;2023-06-14T07:32:40;8.35;;;2.70;;
66437;SDS011;54537;47.972;11.662;2023-06-14T07:35:07;7.53;;;2.95;;
66437;SDS011;54537;47.972;11.662;2023-06-14T07:37:33;5.55;;;2.72;;
66437;SDS011;54537;47.972;11.662;2023-06-14T07:40:01;4.63;;;2.45;;
66437;SDS011;54537;47.972;11.662;2023-06-14T07:42:33;5.78;;;2.78;;
66437;SDS011;54537;47.972;11.662;2023-06-14T07:44:59;6.15;;;2.80;;
66437;SDS011;54537;47.972;11.662;2023-06-14T07:47:26;5.72;;;2.70;;
66437;SDS011;54537;47.972;11.662;2023-06-14T07:49:52;10.02;;;2.88;;
66437;SDS011;54537;47.972;11.662;2023-06-14T07:52:19;7.35;;;2.95;;
66437;SDS011;54537;47.972;11.662;2023-06-14T07:54:45;5.68;;;2.72;;
66437;SDS011;54537;47.972;11.662;2023-06-14T07:57:12;6.45;;;2.50;;
66437;SDS011;54537;47.972;11.662;2023-06-14T07:59:40;5.80;;;2.60;;
66437;SDS011;54537;47.972;11.662;2023-06-14T08:02:06;5.15;;;2.50;;
66437;SDS011;54537;47.972;11.662;2023-06-14T08:04:33;7.43;;;2.35;;
66437;SDS011;54537;47.972;11.662;2023-06-14T08:06:59;6.68;;;2.33;;
66437;SDS011;54537;47.972;11.662;2023-06-14T08:09:26;4.65;;;2.33;;
66437;SDS011;54537;47.972;11.662;2023-06-14T08:11:53;4.53;;;2.40;;
66437;SDS011;54537;47.972;11.662;2023-06-14T08:14:20;5.65;;;2.58;;
66437;SDS011;54537;47.972;11.662;2023-06-14T08:16:48;6.15;;;2.42;;
66437;SDS011;54537;47.972;11.662;2023-06-14T08:19:14;4.82;;;2.55;;
66437;SDS011;54537;47.972;11.662;2023-06-14T08:21:41;6.15;;;2.53;;
66437;SDS011;54537;47.972;11.662;2023-06-14T08:24:08;6.05;;;2.35;;
66437;SDS011;54537;47.972;11.662;2023-06-14T08:26:37;4.70;;;2.22;;
66437;SDS011;54537;47.972;11.662;2023-06-14T08:29:04;4.68;;;2.03;;
66437;SDS011;54537;47.972;11.662;2023-06-14T08:31:32;4.32;;;2.00;;
66437;SDS011;54537;47.972;11.662;2023-06-14T08:33:59;5.50;;;2.50;;
66437;SDS011;54537;47.972;11.662;2023-06-14T08:36:26;4.57;;;2.70;;
66437;SDS011;54537;47.972;11.662;2023-06-14T08:38:52;4.97;;;2.35;;
66437;SDS011;54537;47.972;11.662;2023-06-14T08:41:20;4.40;;;2.42;;
66437;SDS011;54537;47.972;11.662;2023-06-14T08:43:48;5.25;;;2.33;;
66437;SDS011;54537;47.972;11.662;2023-06-14T08:46:14;4.63;;;2.55;;
66437;SDS011;54537;47.972;11.662;2023-06-14T08:48:44;5.25;;;2.45;;
66437;SDS011;54537;47.972;11.662;2023-06-14T08:51:14;4.35;;;2.45;;
66437;SDS011;54537;47.972;11.662;2023-06-14T08:53:41;4.95;;;2.30;;
66437;SDS011;54537;47.972;11.662;2023-06-14T08:56:09;5.22;;;2.30;;
66437;SDS011;54537;47.972;11.662;2023-06-14T08:58:38;6.47;;;2.42;;
66437;SDS011;54537;47.972;11.662;2023-06-14T09:01:08;5.43;;;2.72;;
66437;SDS011;54537;47.972;11.662;2023-06-14T09:03:37;5.97;;;2.65;;
66437;SDS011;54537;47.972;11.662;2023-06-14T09:06:06;7.00;;;2.45;;
66437;SDS011;54537;47.972;11.662;2023-06-14T09:08:35;5.10;;;2.55;;
66437;SDS011;54537;47.972;11.662;2023-06-14T09:11:01;5.40;;;2.70;;
66437;SDS011;54537;47.972;11.662;2023-06-14T09:13:28;4.72;;;2.45;;
66437;SDS011;54537;47.972;11.662;2023-06-14T09:15:54;7.55;;;2.65;;
66437;SDS011;54537;47.972;11.662;2023-06-14T09:18:21;4.65;;;2.42;;
66437;SDS011;54537;47.972;11.662;2023-06-14T09:20:47;5.60;;;2.50;;
66437;SDS011;54537;47.972;11.662;2023-06-14T09:23:14;6.95;;;2.70;;
66437;SDS011;54537;47.972;11.662;2023-06-14T09:25:48;5.00;;;2.28;;
66437;SDS011;54537;47.972;11.662;2023-06-14T09:28:15;5.38;;;3.05;;
66437;SDS011;54537;47.972;11.662;2023-06-14T09:30:41;7.15;;;2.50;;
66437;SDS011;54537;47.972;11.662;2023-06-14T09:33:08;8.50;;;2.40;;
66437;SDS011;54537;47.972;11.662;2023-06-14T09:35:34;6.13;;;2.60;;
66437;SDS011;54537;47.972;11.662;2023-06-14T09:38:01;5.25;;;2.30;;
66437;SDS011;54537;47.972;11.662;2023-06-14T09:40:27;7.65;;;2.70;;
66437;SDS011;54537;47.972;11.662;2023-06-14T09:42:55;6.00;;;2.78;;
66437;SDS011;54537;47.972;11.662;2023-06-14T09:45:23;11.73;;;2.92;;
66437;SDS011;54537;47.972;11.662;2023-06-14T09:47:50;10.00;;;3.05;;
66437;SDS011;54537;47.972;11.662;2023-06-14T09:50:16;6.03;;;2.72;;
66437;SDS011;54537;47.972;11.662;2023-06-14T09:52:43;6.95;;;2.60;;
66437;SDS011;54537;47.972;11.662;2023-06-14T09:55:12;4.82;;;2.40;;
66437;SDS011;54537;47.972;11.662;2023-06-14T09:57:39;6.00;;;2.63;;
66437;SDS011;54537;47.972;11.662;2023-06-14T10:00:09;5.85;;;2.72;;
66437;SDS011;54537;47.972;11.662;2023-06-14T10:02:37;4.25;;;2.53;;
66437;SDS011;54537;47.972;11.662;2023-06-14T10:05:04;9.88;;;2.72;;
66437;SDS011;54537;47.972;11.662;2023-06-14T10:07:32;7.55;;;2.63;;
66437;SDS011;54537;47.972;11.662;2023-06-14T10:10:01;3.85;;;2.35;;
66437;SDS011;54537;47.972;11.662;2023-06-14T10:12:29;4.95;;;2.88;;
66437;SDS011;54537;47.972;11.662;2023-06-14T10:14:56;5.68;;;2.92;;
66437;SDS011;54537;47.972;11.662;2023-06-14T10:17:30;3.28;;;2.42;;
66437;SDS011;54537;47.972;11.662;2023-06-14T10:20:03;5.43;;;3.00;;
66437;SDS011;54537;47.972;11.662;2023-06-14T10:22:37;5.07;;;2.47;;
66437;SDS011;54537;47.972;11.662;2023-06-14T10:25:12;5.50;;;2.67;;
66437;SDS011;54537;47.972;11.662;2023-06-14T10:27:39;8.05;;;2.92;;
66437;SDS011;54537;47.972;11.662;2023-06-14T10:30:11;6.40;;;2.53;;
66437;SDS011;54537;47.972;11.662;2023-06-14T10:35:33;5.60;;;2.65;;
66437;SDS011;54537;47.972;11.662;2023-06-14T10:38:06;5.95;;;3.15;;
66437;SDS011;54537;47.972;11.662;2023-06-14T10:40:34;5.15;;;2.95;;
66437;SDS011;54537;47.972;11.662;2023-06-14T10:43:00;5.72;;;2.80;;
66437;SDS011;54537;47.972;11.662;2023-06-14T10:45:27;6.57;;;2.70;;
66437;SDS011;54537;47.972;11.662;2023-06-14T10:47:53;5.65;;;3.00;;
66437;SDS011;54537;47.972;11.662;2023-06-14T10:50:28;5.80;;;2.53;;
66437;SDS011;54537;47.972;11.662;2023-06-14T10:52:55;6.38;;;3.00;;
66437;SDS011;54537;47.972;11.662;2023-06-14T10:55:22;7.25;;;2.90;;
66437;SDS011;54537;47.972;11.662;2023-06-14T10:57:49;6.75;;;2.80;;
66437;SDS011;54537;47.972;11.662;2023-06-14T11:00:18;5.82;;;2.80;;
66437;SDS011;54537;47.972;11.662;2023-06-14T11:03:04;5.95;;;3.20;;
66437;SDS011;54537;47.972;11.662;2023-06-14T11:05:51;5.88;;;2.90;;
66437;SDS011;54537;47.972;11.662;2023-06-14T11:08:33;4.95;;;2.85;;
66437;SDS011;54537;47.972;11.662;2023-06-14T11:11:36;5.28;;;2.90;;
66437;SDS011;54537;47.972;11.662;2023-06-14T11:14:04;5.53;;;2.78;;
66437;SDS011;54537;47.972;11.662;2023-06-14T11:16:30;7.07;;;2.97;;
66437;SDS011;54537;47.972;11.662;2023-06-14T11:18:58;8.15;;;2.90;;
66437;SDS011;54537;47.972;11.662;2023-06-14T11:21:27;5.05;;;2.40;;
66437;SDS011;54537;47.972;11.662;2023-06-14T11:23:56;6.65;;;2.85;;
66437;SDS011;54537;47.972;11.662;2023-06-14T11:26:26;4.78;;;2.80;;
66437;SDS011;54537;47.972;11.662;2023-06-14T11:28:56;5.95;;;2.90;;
66437;SDS011;54537;47.972;11.662;2023-06-14T11:33:50;4.45;;;2.53;;
66437;SDS011;54537;47.972;11.662;2023-06-14T11:36:17;7.20;;;2.72;;
66437;SDS011;54537;47.972;11.662;2023-06-14T11:38:45;5.75;;;2.80;;
66437;SDS011;54537;47.972;11.662;2023-06-14T11:41:11;7.50;;;2.92;;
66437;SDS011;54537;47.972;11.662;2023-06-14T11:43:39;7.32;;;2.60;;
66437;SDS011;54537;47.972;11.662;2023-06-14T11:46:11;5.55;;;2.83;;
66437;SDS011;54537;47.972;11.662;2023-06-14T11:48:40;4.35;;;2.50;;
66437;SDS011;54537;47.972;11.662;2023-06-14T11:51:07;5.50;;;2.63;;
66437;SDS011;54537;47.972;11.662;2023-06-14T11:53:33;4.80;;;2.53;;
66437;SDS011;54537;47.972;11.662;2023-06-14T11:56:01;6.75;;;2.83;;
66437;SDS011;54537;47.972;11.662;2023-06-14T11:58:28;5.85;;;2.83;;
66437;SDS011;54537;47.972;11.662;2023-06-14T12:00:55;4.50;;;2.45;;
66437;SDS011;54537;47.972;11.662;2023-06-14T12:03:25;5.82;;;2.90;;
66437;SDS011;54537;47.972;11.662;2023-06-14T12:06:01;4.53;;;2.78;;
66437;SDS011;54537;47.972;11.662;2023-06-14T12:08:31;5.68;;;2.63;;
66437;SDS011;54537;47.972;11.662;2023-06-14T12:11:05;7.43;;;2.60;;
66437;SDS011;54537;47.972;11.662;2023-06-14T12:13:33;5.60;;;2.78;;
66437;SDS011;54537;47.972;11.662;2023-06-14T12:16:01;6.90;;;2.90;;
66437;SDS011;54537;47.972;11.662;2023-06-14T12:18:34;6.95;;;2.95;;
66437;SDS011;54537;47.972;11.662;2023-06-14T12:21:01;6.25;;;2.80;;
66437;SDS011;54537;47.972;11.662;2023-06-14T12:23:44;5.07;;;2.67;;
66437;SDS011;54537;47.972;11.662;2023-06-14T12:26:16;6.45;;;3.00;;
66437;SDS011;54537;47.972;11.662;2023-06-14T12:28:44;6.65;;;2.67;;
66437;SDS011;54537;47.972;11.662;2023-06-14T12:31:11;7.65;;;2.58;;
66437;SDS011;54537;47.972;11.662;2023-06-14T12:33:39;6.35;;;2.97;;
66437;SDS011;54537;47.972;11.662;2023-06-14T12:36:06;5.05;;;2.75;;
66437;SDS011;54537;47.972;11.662;2023-06-14T12:38:33;6.50;;;2.75;;
66437;SDS011;54537;47.972;11.662;2023-06-14T12:41:00;7.03;;;2.70;;
66437;SDS011;54537;47.972;11.662;2023-06-14T12:43:28;5.70;;;2.80;;
66437;SDS011;54537;47.972;11.662;2023-06-14T12:45:54;6.95;;;2.70;;
66437;SDS011;54537;47.972;11.662;2023-06-14T12:48:21;10.70;;;3.20;;
66437;SDS011;54537;47.972;11.662;2023-06-14T12:50:48;4.78;;;2.67;;
66437;SDS011;54537;47.972;11.662;2023-06-14T12:53:14;7.72;;;3.00;;
66437;SDS011;54537;47.972;11.662;2023-06-14T12:55:42;6.05;;;2.67;;
66437;SDS011;54537;47.972;11.662;2023-06-14T12:58:08;5.78;;;3.03;;
66437;SDS011;54537;47.972;11.662;2023-06-14T13:00:38;6.40;;;2.97;;
66437;SDS011;54537;47.972;11.662;2023-06-14T13:03:05;6.57;;;2.80;;
66437;SDS011;54537;47.972;11.662;2023-06-14T13:05:32;6.53;;;3.08;;
66437;SDS011;54537;47.972;11.662;2023-06-14T13:07:58;7.85;;;3.15;;
66437;SDS011;54537;47.972;11.662;2023-06-14T13:10:25;4.90;;;2.83;;
66437;SDS011;54537;47.972;11.662;2023-06-14T13:12:52;6.60;;;2.83;;
66437;SDS011;54537;47.972;11.662;2023-06-14T13:15:18;7.88;;;2.88;;
66437;SDS011;54537;47.972;11.662;2023-06-14T13:17:46;7.50;;;3.20;;
66437;SDS011;54537;47.972;11.662;2023-06-14T13:20:14;6.72;;;2.78;;
66437;SDS011;54537;47.972;11.662;2023-06-14T13:22:40;4.47;;;2.92;;
66437;SDS011;54537;47.972;11.662;2023-06-14T13:25:07;6.45;;;2.92;;
66437;SDS011;54537;47.972;11.662;2023-06-14T13:27:34;7.03;;;2.90;;
66437;SDS011;54537;47.972;11.662;2023-06-14T13:30:01;6.85;;;3.10;;
66437;SDS011;54537;47.972;11.662;2023-06-14T13:32:27;6.30;;;2.95;;
66437;SDS011;54537;47.972;11.662;2023-06-14T13:34:55;6.55;;;3.10;;
66437;SDS011;54537;47.972;11.662;2023-06-14T13:37:22;6.68;;;2.80;;
66437;SDS011;54537;47.972;11.662;2023-06-14T13:39:49;5.72;;;2.70;;
66437;SDS011;54537;47.972;11.662;2023-06-14T13:42:16;8.70;;;3.15;;
66437;SDS011;54537;47.972;11.662;2023-06-14T13:44:43;6.50;;;2.95;;
66437;SDS011;54537;47.972;11.662;2023-06-14T13:47:09;6.18;;;3.15;;
66437;SDS011;54537;47.972;11.662;2023-06-14T13:49:36;7.55;;;3.30;;
66437;SDS011;54537;47.972;11.662;2023-06-14T13:52:04;7.25;;;3.15;;
66437;SDS011;54537;47.972;11.662;2023-06-14T13:54:31;8.18;;;3.00;;
66437;SDS011;54537;47.972;11.662;2023-06-14T13:56:57;7.40;;;3.13;;
66437;SDS011;54537;47.972;11.662;2023-06-14T13:59:24;5.47;;;2.85;;
66437;SDS011;54537;47.972;11.662;2023-06-14T14:01:50;5.75;;;2.83;;
66437;SDS011;54537;47.972;11.662;2023-06-14T14:04:17;7.80;;;2.70;;
66437;SDS011;54537;47.972;11.662;2023-06-14T14:06:43;9.05;;;3.08;;
66437;SDS011;54537;47.972;11.662;2023-06-14T14:09:11;6.60;;;2.80;;
66437;SDS011;54537;47.972;11.662;2023-06-14T14:11:38;6.35;;;3.00;;
66437;SDS011;54537;47.972;11.662;2023-06-14T14:14:06;7.55;;;2.80;;
66437;SDS011;54537;47.972;11.662;2023-06-14T14:16:33;7.13;;;3.17;;
66437;SDS011;54537;47.972;11.662;2023-06-14T14:19:00;6.07;;;3.03;;
66437;SDS011;54537;47.972;11.662;2023-06-14T14:21:27;5.63;;;2.90;;
66437;SDS011;54537;47.972;11.662;2023-06-14T14:23:53;7.53;;;3.15;;
66437;SDS011;54537;47.972;11.662;2023-06-14T14:26:21;6.30;;;2.65;;
66437;SDS011;54537;47.972;11.662;2023-06-14T14:28:48;7.65;;;3.25;;
66437;SDS011;54537;47.972;11.662;2023-06-14T14:31:15;8.13;;;3.00;;
66437;SDS011;54537;47.972;11.662;2023-06-14T14:33:41;7.07;;;3.10;;
66437;SDS011;54537;47.972;11.662;2023-06-14T14:36:07;7.97;;;3.38;;
66437;SDS011;54537;47.972;11.662;2023-06-14T14:38:34;5.93;;;2.90;;
66437;SDS011;54537;47.972;11.662;2023-06-14T14:41:00;4.88;;;2.80;;
66437;SDS011;54537;47.972;11.662;2023-06-14T14:43:28;5.63;;;3.08;;